Time;durP1;ratioP1;P1;durP2;ratioP2;P2;SDS_P1;SDS_P2;PMS_P1;PMS_P2;Temp;Humidity;BMP_temperature;BMP_pressure;BME280_temperature;BME280_humidity;BME280_pressure;Samples;Min_cycle;Max_cycle;Signal;HPM_P1;HPM_P2
2023/12/18 00:02:08;;;;;;;12.82;9.90;;;6.90;99.90;;;;;;5076491;28;20028;-84
2023/12/18 00:04:34;;;;;;;18.35;10.80;;;7.00;99.90;;;;;;5076269;28;20020;-84
2023/12/18 00:07:01;;;;;;;17.42;10.40;;;7.10;99.90;;;;;;5077042;28;20173;-84
2023/12/18 00:09:27;;;;;;;16.50;10.82;;;7.20;99.90;;;;;;5093866;28;20020;-84
2023/12/18 00:11:53;;;;;;;16.08;11.20;;;7.20;99.90;;;;;;5076134;28;20040;-85
2023/12/18 00:14:22;;;;;;;15.57;11.68;;;7.30;99.90;;;;;;5092819;28;20139;-84
2023/12/18 00:16:49;;;;;;;13.88;11.10;;;7.30;99.90;;;;;;5076429;28;20035;-84
2023/12/18 00:19:15;;;;;;;15.02;11.52;;;7.30;99.90;;;;;;5076389;28;20081;-84
2023/12/18 00:21:41;;;;;;;12.10;10.82;;;7.30;99.90;;;;;;5076405;28;20401;-83
2023/12/18 00:24:08;;;;;;;19.20;10.73;;;7.20;99.90;;;;;;5073001;28;20029;-83
2023/12/18 00:26:34;;;;;;;13.45;11.57;;;7.20;99.90;;;;;;5056460;28;20492;-84
2023/12/18 00:29:00;;;;;;;16.13;11.57;;;7.00;99.90;;;;;;5073074;28;20099;-83
2023/12/18 00:31:27;;;;;;;12.50;10.50;;;6.90;99.90;;;;;;5056220;28;20060;-84
2023/12/18 00:33:53;;;;;;;12.77;10.55;;;6.80;99.90;;;;;;5080459;28;20032;-84
2023/12/18 00:36:20;;;;;;;13.80;10.93;;;6.70;99.90;;;;;;5076086;28;20142;-85
2023/12/18 00:38:47;;;;;;;12.15;10.35;;;6.70;99.90;;;;;;5076222;28;20024;-84
2023/12/18 00:41:13;;;;;;;13.10;9.52;;;6.80;99.90;;;;;;5075908;28;20039;-84
2023/12/18 00:43:39;;;;;;;11.50;9.77;;;6.80;99.90;;;;;;5075975;28;20036;-84
2023/12/18 00:46:09;;;;;;;14.60;9.88;;;6.90;99.90;;;;;;5075973;28;20452;-84
2023/12/18 00:48:35;;;;;;;13.02;9.38;;;6.80;99.90;;;;;;5075995;28;20030;-84
2023/12/18 00:51:02;;;;;;;10.70;9.40;;;6.90;99.90;;;;;;5075966;28;20519;-83
2023/12/18 00:53:28;;;;;;;11.80;9.57;;;7.10;99.90;;;;;;5072430;28;20032;-84
2023/12/18 00:55:54;;;;;;;12.85;9.68;;;7.10;99.90;;;;;;5055886;28;20024;-84
2023/12/18 00:58:21;;;;;;;10.55;9.52;;;7.10;99.90;;;;;;5055888;28;20025;-83
2023/12/18 01:00:47;;;;;;;13.40;10.32;;;7.10;99.90;;;;;;5055745;28;20052;-84
2023/12/18 01:03:13;;;;;;;11.05;9.95;;;7.10;99.90;;;;;;5056830;28;20548;-83
2023/12/18 01:05:40;;;;;;;11.70;10.50;;;7.10;99.90;;;;;;5075947;28;20054;-84
2023/12/18 01:08:08;;;;;;;12.25;10.85;;;7.00;99.90;;;;;;5075844;28;20028;-84
2023/12/18 01:10:34;;;;;;;12.93;11.20;;;7.00;99.90;;;;;;5075880;28;20109;-83
2023/12/18 01:13:00;;;;;;;15.43;10.82;;;6.90;99.90;;;;;;5092923;28;20146;-84
2023/12/18 01:15:30;;;;;;;15.95;11.85;;;6.80;99.90;;;;;;5075743;28;20499;-84
2023/12/18 01:17:56;;;;;;;14.02;10.98;;;6.80;99.90;;;;;;5078251;28;20028;-85
2023/12/18 01:20:23;;;;;;;13.38;11.13;;;6.70;99.90;;;;;;5079647;28;20020;-84
2023/12/18 01:22:49;;;;;;;15.68;12.48;;;6.70;99.90;;;;;;5096595;28;20036;-84
2023/12/18 01:25:16;;;;;;;15.32;11.70;;;6.70;99.90;;;;;;5076057;28;20024;-84
2023/12/18 01:27:42;;;;;;;12.75;11.45;;;6.60;99.90;;;;;;5076023;28;20553;-84
2023/12/18 01:30:09;;;;;;;16.00;11.70;;;6.60;99.90;;;;;;5059107;28;20048;-84
2023/12/18 01:32:39;;;;;;;21.20;11.45;;;6.60;99.90;;;;;;5087700;28;20562;-84
2023/12/18 01:35:05;;;;;;;13.65;12.05;;;6.50;99.90;;;;;;5077550;28;20543;-84
2023/12/18 01:37:32;;;;;;;14.00;10.90;;;6.50;99.90;;;;;;5095902;28;20485;-84
2023/12/18 01:39:58;;;;;;;13.20;10.93;;;6.40;99.90;;;;;;5079126;28;20032;-83
2023/12/18 01:42:24;;;;;;;13.07;11.48;;;6.40;99.90;;;;;;5095703;28;20423;-83
2023/12/18 01:44:51;;;;;;;14.45;11.48;;;6.30;99.90;;;;;;5095684;28;20137;-84
2023/12/18 01:47:17;;;;;;;17.25;11.65;;;6.30;99.90;;;;;;5075181;28;20051;-84
2023/12/18 01:49:44;;;;;;;18.20;11.38;;;6.30;99.90;;;;;;5059025;28;20056;-84
2023/12/18 01:52:11;;;;;;;15.55;11.27;;;6.30;99.90;;;;;;5059060;28;20040;-83
2023/12/18 01:54:41;;;;;;;13.23;10.63;;;6.30;99.90;;;;;;5063924;28;20024;-84
2023/12/18 01:57:08;;;;;;;14.07;9.95;;;6.30;99.90;;;;;;5077898;28;20184;-84
2023/12/18 01:59:35;;;;;;;13.93;9.35;;;6.40;99.90;;;;;;5076612;28;20024;-84
2023/12/18 02:02:02;;;;;;;12.77;9.88;;;6.40;99.90;;;;;;5058671;28;20120;-84
2023/12/18 02:04:29;;;;;;;12.00;10.73;;;6.40;99.90;;;;;;5062217;28;20016;-84
2023/12/18 02:07:00;;;;;;;13.63;10.70;;;6.30;99.90;;;;;;5095436;28;20165;-83
2023/12/18 02:09:27;;;;;;;19.77;11.70;;;6.20;99.90;;;;;;5078928;28;20024;-83
2023/12/18 02:11:53;;;;;;;14.07;11.32;;;6.20;99.90;;;;;;5078591;28;20039;-83
2023/12/18 02:14:20;;;;;;;19.35;11.50;;;6.10;99.90;;;;;;5095326;28;20030;-84
2023/12/18 02:16:47;;;;;;;18.70;12.15;;;6.00;99.90;;;;;;5095470;28;20032;-84
2023/12/18 02:19:28;;;;;;;20.27;12.20;;;6.00;99.90;;;;;;5095646;28;20028;-83
2023/12/18 02:21:55;;;;;;;16.70;12.05;;;5.90;99.90;;;;;;5078724;28;20107;-83
2023/12/18 02:24:22;;;;;;;16.98;12.50;;;5.90;99.90;;;;;;5079591;28;20031;-84
2023/12/18 02:26:48;;;;;;;17.65;11.40;;;5.80;99.90;;;;;;5079220;28;20175;-84
2023/12/18 02:29:15;;;;;;;20.08;11.93;;;5.80;99.90;;;;;;5077351;28;20077;-84
2023/12/18 02:31:42;;;;;;;21.00;12.88;;;5.90;99.90;;;;;;5078523;28;20044;-84
2023/12/18 02:34:09;;;;;;;18.27;11.70;;;5.90;99.90;;;;;;5078080;28;20028;-83
2023/12/18 02:36:36;;;;;;;20.10;11.98;;;5.80;99.90;;;;;;5095225;28;20048;-84
2023/12/18 02:39:02;;;;;;;21.30;11.32;;;5.80;99.90;;;;;;5077941;28;20039;-83
2023/12/18 02:41:28;;;;;;;22.48;12.35;;;5.80;99.90;;;;;;5077995;28;20028;-83
2023/12/18 02:43:56;;;;;;;20.98;12.38;;;5.70;99.90;;;;;;5094872;28;20082;-83
2023/12/18 02:46:22;;;;;;;21.10;12.35;;;5.60;99.90;;;;;;5094621;28;20031;-83
2023/12/18 02:48:52;;;;;;;18.80;11.88;;;5.60;99.90;;;;;;5078005;28;20043;-84
2023/12/18 02:51:18;;;;;;;25.05;12.90;;;5.50;99.90;;;;;;5094557;28;20040;-84
2023/12/18 02:53:45;;;;;;;20.95;11.60;;;5.50;99.90;;;;;;5074148;28;20017;-84
2023/12/18 02:56:13;;;;;;;17.63;10.98;;;5.50;99.90;;;;;;5074231;28;20029;-83
2023/12/18 02:58:40;;;;;;;21.45;11.43;;;5.50;99.90;;;;;;5074274;28;20017;-84
2023/12/18 03:01:06;;;;;;;18.02;11.43;;;5.50;99.90;;;;;;5074208;28;20169;-83
2023/12/18 03:03:33;;;;;;;20.92;11.95;;;5.60;99.90;;;;;;5074272;28;20031;-84
2023/12/18 03:05:59;;;;;;;19.17;11.70;;;5.50;99.90;;;;;;5077359;28;20028;-83
2023/12/18 03:08:26;;;;;;;17.77;11.15;;;5.60;99.90;;;;;;5094475;28;20073;-83
2023/12/18 03:10:52;;;;;;;18.85;11.32;;;5.60;99.90;;;;;;5077114;28;20039;-83
2023/12/18 03:13:18;;;;;;;20.45;11.63;;;5.60;99.90;;;;;;5073962;28;20020;-84
2023/12/18 03:15:45;;;;;;;19.13;11.45;;;5.60;99.90;;;;;;5074002;28;20034;-84
2023/12/18 03:18:11;;;;;;;19.88;10.57;;;5.60;99.90;;;;;;5057040;28;20021;-83
2023/12/18 03:20:38;;;;;;;24.08;12.10;;;5.50;99.90;;;;;;5073756;28;20123;-84
2023/12/18 03:23:04;;;;;;;21.90;11.05;;;5.50;99.90;;;;;;5087890;28;20024;-84
2023/12/18 03:25:30;;;;;;;23.25;10.95;;;5.50;99.90;;;;;;5094917;28;20024;-83
2023/12/18 03:28:03;;;;;;;18.75;10.85;;;5.50;99.90;;;;;;5094361;28;20036;-84
2023/12/18 03:30:29;;;;;;;22.98;10.35;;;5.40;99.90;;;;;;5076762;28;20097;-83
2023/12/18 03:32:56;;;;;;;18.05;10.13;;;5.50;99.90;;;;;;5095100;28;20069;-83
2023/12/18 03:35:23;;;;;;;20.70;10.68;;;5.50;99.90;;;;;;5093776;28;20028;-84
2023/12/18 03:37:49;;;;;;;19.15;10.48;;;5.50;99.90;;;;;;5076766;28;20032;-84
2023/12/18 03:40:15;;;;;;;22.00;10.77;;;5.50;99.90;;;;;;5076417;28;20024;-84
2023/12/18 03:42:42;;;;;;;20.70;10.07;;;5.50;99.90;;;;;;5076982;28;20020;-83
2023/12/18 03:45:09;;;;;;;17.35;9.93;;;5.50;99.90;;;;;;5076691;28;20051;-83
2023/12/18 03:47:35;;;;;;;19.90;10.68;;;5.50;99.90;;;;;;5072822;28;20021;-84
2023/12/18 03:50:01;;;;;;;22.52;9.90;;;5.50;99.90;;;;;;5056642;28;20028;-84
2023/12/18 03:52:28;;;;;;;21.88;9.68;;;5.60;99.90;;;;;;5066495;28;20028;-84
2023/12/18 03:54:54;;;;;;;21.13;9.55;;;5.60;99.90;;;;;;5073151;28;20021;-83
2023/12/18 03:57:20;;;;;;;16.65;9.13;;;5.60;99.90;;;;;;5055793;28;20040;-83
2023/12/18 03:59:47;;;;;;;15.80;9.40;;;5.70;99.90;;;;;;5055850;28;20040;-83
2023/12/18 04:02:13;;;;;;;17.02;9.32;;;5.70;99.90;;;;;;5039057;28;20075;-84
2023/12/18 04:04:40;;;;;;;19.10;9.82;;;5.70;99.90;;;;;;5056335;28;20032;-83
2023/12/18 04:07:06;;;;;;;19.73;9.40;;;5.70;99.90;;;;;;5092127;28;20150;-83
2023/12/18 04:09:32;;;;;;;13.45;8.35;;;5.80;99.90;;;;;;5075264;28;20429;-82
2023/12/18 04:11:59;;;;;;;17.40;8.68;;;5.80;99.90;;;;;;5075428;28;20035;-83
2023/12/18 04:14:25;;;;;;;15.65;8.68;;;5.80;99.90;;;;;;5075376;28;20099;-84
2023/12/18 04:16:52;;;;;;;17.20;7.90;;;5.80;99.90;;;;;;5058439;28;20027;-83
2023/12/18 04:19:18;;;;;;;17.70;9.55;;;5.80;99.90;;;;;;5058271;28;20047;-81
2023/12/18 04:21:45;;;;;;;18.75;9.05;;;5.80;99.90;;;;;;5091609;28;20052;-80
2023/12/18 04:24:11;;;;;;;21.20;9.20;;;5.80;99.90;;;;;;5074916;28;20028;-82
2023/12/18 04:26:37;;;;;;;13.43;8.40;;;5.80;99.90;;;;;;5071302;28;20036;-81
2023/12/18 04:29:04;;;;;;;17.90;9.13;;;5.80;99.90;;;;;;5054662;28;20033;-80
2023/12/18 04:31:33;;;;;;;18.00;9.15;;;5.80;99.90;;;;;;5086514;28;20052;-81
2023/12/18 04:34:03;;;;;;;17.98;8.85;;;5.80;99.90;;;;;;5054612;28;20094;-81
2023/12/18 04:36:29;;;;;;;19.20;9.40;;;5.80;99.90;;;;;;5070784;28;20059;-81
2023/12/18 04:38:56;;;;;;;19.85;9.38;;;5.80;99.90;;;;;;5075387;28;20039;-81
2023/12/18 04:41:22;;;;;;;13.77;8.40;;;5.80;99.90;;;;;;5093564;28;20099;-81
2023/12/18 04:43:49;;;;;;;13.93;8.40;;;5.80;99.90;;;;;;5075531;28;20489;-81
2023/12/18 04:46:15;;;;;;;17.52;8.63;;;5.80;99.90;;;;;;5075594;28;20028;-81
2023/12/18 04:48:42;;;;;;;18.42;8.70;;;5.80;99.90;;;;;;5075471;28;20024;-81
2023/12/18 04:51:09;;;;;;;12.70;7.97;;;5.80;99.90;;;;;;5093382;28;20043;-82
2023/12/18 04:53:35;;;;;;;16.08;8.27;;;5.80;99.90;;;;;;5079265;28;20089;-82
2023/12/18 04:56:04;;;;;;;15.43;8.38;;;5.80;99.90;;;;;;5096799;28;20108;-82
2023/12/18 04:58:31;;;;;;;12.90;8.07;;;5.90;99.90;;;;;;5096729;28;20050;-82
2023/12/18 05:00:58;;;;;;;17.00;9.02;;;5.90;99.90;;;;;;5097639;28;20051;-82
2023/12/18 05:03:25;;;;;;;17.33;8.95;;;5.80;99.90;;;;;;5096154;28;20021;-82
2023/12/18 05:05:51;;;;;;;17.83;8.43;;;5.90;99.90;;;;;;5079305;28;20035;-82
2023/12/18 05:08:17;;;;;;;15.50;8.55;;;5.90;99.90;;;;;;5079368;28;20024;-83
2023/12/18 05:10:43;;;;;;;20.98;9.48;;;5.90;99.90;;;;;;5079091;28;20034;-82
2023/12/18 05:13:10;;;;;;;14.50;8.60;;;5.90;99.90;;;;;;5079049;28;20028;-81
2023/12/18 05:15:37;;;;;;;24.65;9.77;;;5.80;99.90;;;;;;5079422;28;20024;-85
2023/12/18 05:18:05;;;;;;;18.30;9.95;;;5.80;99.90;;;;;;5079521;28;20047;-87
2023/12/18 05:20:32;;;;;;;17.30;9.50;;;5.80;99.90;;;;;;5079264;28;20111;-83
2023/12/18 05:22:58;;;;;;;17.05;8.77;;;5.80;99.90;;;;;;5096188;28;20031;-84
2023/12/18 05:25:25;;;;;;;17.88;8.50;;;5.80;99.90;;;;;;5079066;28;20020;-83
2023/12/18 05:27:51;;;;;;;19.65;9.00;;;5.80;99.90;;;;;;5079426;28;20039;-84
2023/12/18 05:30:17;;;;;;;16.05;8.48;;;5.90;99.90;;;;;;5075269;28;20090;-83
2023/12/18 05:32:44;;;;;;;16.63;9.05;;;5.90;99.90;;;;;;5079174;28;20484;-83
2023/12/18 05:35:10;;;;;;;12.65;8.52;;;5.90;99.90;;;;;;5080029;28;20027;-83
2023/12/18 05:37:37;;;;;;;15.43;8.70;;;5.90;99.90;;;;;;5079972;28;20028;-83
2023/12/18 05:40:04;;;;;;;23.58;10.00;;;5.90;99.90;;;;;;5079084;28;20031;-84
2023/12/18 05:42:30;;;;;;;14.50;8.93;;;5.90;99.90;;;;;;5078974;28;20030;-83
2023/12/18 05:44:57;;;;;;;20.20;9.45;;;5.90;99.90;;;;;;5075350;28;20039;-83
2023/12/18 05:47:24;;;;;;;13.45;9.30;;;5.90;99.90;;;;;;5058719;28;20070;-83
2023/12/18 05:49:50;;;;;;;19.90;10.27;;;5.80;99.90;;;;;;5082250;28;20024;-80
2023/12/18 05:52:18;;;;;;;19.70;9.18;;;5.80;99.90;;;;;;5078774;28;20024;-83
2023/12/18 05:54:44;;;;;;;15.07;9.43;;;5.90;99.90;;;;;;5078839;28;20020;-83
2023/12/18 05:57:14;;;;;;;19.50;10.00;;;5.90;99.90;;;;;;5095791;28;20120;-83
2023/12/18 05:59:40;;;;;;;20.60;9.57;;;5.80;99.90;;;;;;5078755;28;20024;-83
2023/12/18 06:02:07;;;;;;;23.40;10.20;;;5.80;99.90;;;;;;5074842;28;20028;-83
2023/12/18 06:04:33;;;;;;;20.98;10.13;;;5.80;99.90;;;;;;5075052;28;20108;-87
2023/12/18 06:06:59;;;;;;;21.63;10.60;;;5.80;99.90;;;;;;5092227;28;20028;-83
2023/12/18 06:09:29;;;;;;;17.52;10.52;;;5.80;99.90;;;;;;5058500;28;20024;-83
2023/12/18 06:11:56;;;;;;;31.05;11.85;;;5.70;99.90;;;;;;5064279;28;20040;-83
2023/12/18 06:14:23;;;;;;;25.30;12.50;;;5.70;99.90;;;;;;5078524;28;20088;-83
2023/12/18 06:16:49;;;;;;;30.52;12.10;;;5.80;99.90;;;;;;5077927;28;20028;-83
2023/12/18 06:19:15;;;;;;;25.95;12.52;;;5.80;99.90;;;;;;5078132;28;20032;-83
2023/12/18 06:21:43;;;;;;;20.88;11.95;;;5.80;99.90;;;;;;5077461;28;20417;-83
2023/12/18 06:24:09;;;;;;;23.45;12.43;;;5.80;99.90;;;;;;5074630;28;20021;-82
2023/12/18 06:26:36;;;;;;;22.10;11.80;;;5.90;99.90;;;;;;5074829;28;20029;-82
2023/12/18 06:29:02;;;;;;;21.65;10.52;;;5.90;99.90;;;;;;5075110;28;20190;-83
2023/12/18 06:31:29;;;;;;;21.05;10.93;;;6.00;99.90;;;;;;5057625;28;20139;-83
2023/12/18 06:33:55;;;;;;;17.58;10.93;;;6.00;99.90;;;;;;5072392;28;20035;-86
2023/12/18 06:36:22;;;;;;;17.25;9.55;;;6.10;99.90;;;;;;5073350;28;20028;-83
2023/12/18 06:38:49;;;;;;;20.08;10.65;;;6.20;99.90;;;;;;5074098;28;20025;-83
2023/12/18 06:41:15;;;;;;;18.48;10.27;;;6.30;99.90;;;;;;5057689;28;20041;-83
2023/12/18 06:43:42;;;;;;;21.60;10.70;;;6.50;99.90;;;;;;5057709;28;20043;-82
2023/12/18 06:46:10;;;;;;;23.15;10.68;;;6.70;99.90;;;;;;5070375;28;20441;-83
2023/12/18 06:48:36;;;;;;;17.38;9.23;;;6.90;99.90;;;;;;5077536;28;20107;-83
2023/12/18 06:51:03;;;;;;;19.90;9.18;;;7.10;99.90;;;;;;5077257;28;20150;-82
2023/12/18 06:53:29;;;;;;;15.88;8.25;;;7.30;99.90;;;;;;5094133;28;20065;-83
2023/12/18 06:56:02;;;;;;;14.82;9.23;;;7.40;99.90;;;;;;5077178;28;20123;-83
2023/12/18 06:58:29;;;;;;;17.08;10.30;;;7.50;99.90;;;;;;5094225;28;20035;-88
2023/12/18 07:00:55;;;;;;;17.15;10.57;;;7.70;99.90;;;;;;5077078;28;20020;-81
2023/12/18 07:03:22;;;;;;;12.68;11.43;;;7.90;99.90;;;;;;5093643;28;20024;-82
2023/12/18 07:05:48;;;;;;;14.95;13.18;;;7.90;99.90;;;;;;5094606;28;20427;-82
2023/12/18 07:08:14;;;;;;;17.63;13.80;;;8.10;99.90;;;;;;5076784;28;20061;-81
2023/12/18 07:10:41;;;;;;;24.55;14.23;;;8.10;99.90;;;;;;5094771;28;20100;-81
2023/12/18 07:13:07;;;;;;;17.55;15.27;;;8.40;99.90;;;;;;5093547;28;20036;-82
2023/12/18 07:15:34;;;;;;;19.52;15.73;;;8.60;99.90;;;;;;5075457;28;20024;-80
2023/12/18 07:18:01;;;;;;;19.90;15.98;;;8.70;99.90;;;;;;5093422;28;20035;-81
2023/12/18 07:20:27;;;;;;;19.45;15.45;;;8.70;99.90;;;;;;5092937;28;20500;-81
2023/12/18 07:22:53;;;;;;;24.33;16.50;;;8.90;99.90;;;;;;5093115;28;20043;-80
2023/12/18 07:25:19;;;;;;;26.38;17.92;;;9.00;99.90;;;;;;5076363;28;20024;-81
2023/12/18 07:27:46;;;;;;;19.02;17.23;;;9.20;99.90;;;;;;5093368;28;20027;-81
2023/12/18 07:30:12;;;;;;;27.90;17.98;;;9.30;99.90;;;;;;5098499;28;20502;-80
2023/12/18 07:32:39;;;;;;;21.42;17.98;;;9.50;99.90;;;;;;5096210;28;20032;-81
2023/12/18 07:35:07;;;;;;;21.00;18.48;;;9.70;99.90;;;;;;5096081;28;20028;-85
2023/12/18 07:37:34;;;;;;;22.58;19.38;;;9.90;99.90;;;;;;5080177;28;20118;-85
2023/12/18 07:40:01;;;;;;;27.13;19.00;;;10.00;99.90;;;;;;5080264;28;20015;-85
2023/12/18 07:42:28;;;;;;;28.65;18.70;;;10.20;99.90;;;;;;5076289;28;20024;-87
2023/12/18 07:44:54;;;;;;;20.77;16.50;;;10.40;99.90;;;;;;5077396;28;20016;-83
2023/12/18 07:47:20;;;;;;;26.05;16.25;;;10.50;99.90;;;;;;5114735;28;20046;-83
2023/12/18 07:49:50;;;;;;;17.88;15.40;;;10.50;99.90;;;;;;5096508;28;20095;-83
2023/12/18 07:52:16;;;;;;;20.88;15.40;;;10.50;99.90;;;;;;5096595;28;20077;-83
2023/12/18 07:54:42;;;;;;;22.77;14.75;;;10.60;99.90;;;;;;5079656;28;20031;-83
2023/12/18 07:57:09;;;;;;;25.02;15.07;;;10.70;99.90;;;;;;5079722;28;20027;-83
2023/12/18 07:59:39;;;;;;;19.83;14.43;;;10.60;99.90;;;;;;5096508;28;20027;-83
2023/12/18 08:02:09;;;;;;;25.10;15.07;;;10.60;99.90;;;;;;5079418;28;20032;-82
2023/12/18 08:04:36;;;;;;;22.08;14.18;;;10.70;99.90;;;;;;5079141;28;20039;-83
2023/12/18 08:07:02;;;;;;;27.02;13.52;;;10.80;99.90;;;;;;5079173;28;20034;-83
2023/12/18 08:09:29;;;;;;;20.10;13.45;;;10.80;99.90;;;;;;5096733;28;20061;-83
2023/12/18 08:11:55;;;;;;;18.60;13.02;;;10.80;99.90;;;;;;5079391;28;20434;-83
2023/12/18 08:14:22;;;;;;;21.25;13.52;;;10.80;99.90;;;;;;5075656;28;20496;-85
2023/12/18 08:16:49;;;;;;;17.75;13.82;;;10.90;99.90;;;;;;5092759;28;20036;-82
2023/12/18 08:19:16;;;;;;;18.60;13.40;;;10.90;99.90;;;;;;5092678;28;20025;-81
2023/12/18 08:21:44;;;;;;;19.90;13.45;;;11.10;99.90;;;;;;5076119;28;20028;-82
2023/12/18 08:24:11;;;;;;;26.02;13.43;;;11.20;99.90;;;;;;5095988;28;20392;-82
2023/12/18 08:26:37;;;;;;;21.13;13.40;;;11.30;99.90;;;;;;5078963;28;20435;-83
2023/12/18 08:29:07;;;;;;;20.17;13.30;;;11.40;99.90;;;;;;5079375;28;20031;-84
2023/12/18 08:31:34;;;;;;;18.38;12.43;;;11.50;99.90;;;;;;5075574;28;20051;-84
2023/12/18 08:34:00;;;;;;;21.05;13.10;;;11.60;99.90;;;;;;5075611;28;20028;-84
2023/12/18 08:36:30;;;;;;;27.13;13.30;;;11.80;99.90;;;;;;5075860;28;20032;-84
2023/12/18 08:38:56;;;;;;;23.02;12.85;;;11.90;99.90;;;;;;5072231;28;20020;-84
2023/12/18 08:41:22;;;;;;;16.33;12.82;;;12.00;99.90;;;;;;5072785;28;20119;-83
2023/12/18 08:43:49;;;;;;;15.57;13.00;;;12.10;99.90;;;;;;5086886;28;20024;-83
2023/12/18 08:46:15;;;;;;;13.57;12.27;;;12.30;99.90;;;;;;5092260;28;20097;-84
2023/12/18 08:48:41;;;;;;;22.02;12.43;;;12.30;99.90;;;;;;5075494;28;20492;-84
2023/12/18 08:51:08;;;;;;;24.95;12.55;;;12.40;99.90;;;;;;5093486;28;20520;-83
2023/12/18 08:53:34;;;;;;;24.25;13.10;;;12.50;99.90;;;;;;5092064;28;20473;-84
2023/12/18 08:56:00;;;;;;;23.10;13.25;;;12.60;99.90;;;;;;5075176;28;20062;-84
2023/12/18 08:58:27;;;;;;;22.33;12.93;;;12.70;99.90;;;;;;5075434;28;20024;-84
2023/12/18 09:00:53;;;;;;;14.80;13.05;;;12.70;99.90;;;;;;5075125;28;20127;-84
2023/12/18 09:03:20;;;;;;;27.63;13.32;;;12.80;99.90;;;;;;5071726;28;20027;-83
2023/12/18 09:05:47;;;;;;;20.23;13.32;;;12.90;99.90;;;;;;5055880;28;20089;-83
2023/12/18 09:08:16;;;;;;;23.70;13.15;;;12.90;99.90;;;;;;5063558;28;20023;-83
2023/12/18 09:10:43;;;;;;;24.33;14.02;;;12.90;99.90;;;;;;5074413;28;20139;-83
2023/12/18 09:13:09;;;;;;;18.88;12.70;;;12.90;99.90;;;;;;5092183;28;20590;-83
2023/12/18 09:15:40;;;;;;;19.88;12.50;;;12.90;99.90;;;;;;5075448;28;20025;-83
2023/12/18 09:18:07;;;;;;;24.48;12.32;;;12.90;99.90;;;;;;5075910;28;20020;-86
2023/12/18 09:20:33;;;;;;;18.27;12.77;;;12.90;99.90;;;;;;5072285;28;20170;-84
2023/12/18 09:23:00;;;;;;;23.27;13.38;;;13.00;99.90;;;;;;5055646;28;20028;-82
2023/12/18 09:25:26;;;;;;;20.13;12.60;;;13.20;99.90;;;;;;5073130;28;20025;-83
2023/12/18 09:27:52;;;;;;;19.35;13.52;;;13.30;99.90;;;;;;5089266;28;20055;-83
2023/12/18 09:30:18;;;;;;;14.82;12.40;;;13.40;99.90;;;;;;5069256;28;20046;-83
2023/12/18 09:32:45;;;;;;;20.50;13.10;;;13.40;99.90;;;;;;5075174;28;20032;-83
2023/12/18 09:35:11;;;;;;;18.17;12.25;;;13.50;99.90;;;;;;5075267;28;20025;-83
2023/12/18 09:37:37;;;;;;;16.10;13.45;;;13.60;99.90;;;;;;5075623;28;20032;-85
2023/12/18 09:40:07;;;;;;;19.98;13.20;;;13.80;99.90;;;;;;5078846;28;20477;-84
2023/12/18 09:42:33;;;;;;;14.88;12.48;;;13.90;99.90;;;;;;5078595;28;20477;-88
2023/12/18 09:45:02;;;;;;;16.05;12.98;;;13.80;99.90;;;;;;5078993;28;20020;-84
2023/12/18 09:47:29;;;;;;;18.20;12.35;;;13.80;99.90;;;;;;5079038;28;20039;-85
2023/12/18 09:49:56;;;;;;;18.38;12.88;;;13.80;99.90;;;;;;5078517;28;20055;-85
2023/12/18 09:52:23;;;;;;;17.55;12.98;;;13.80;99.90;;;;;;5078906;28;20543;-85
2023/12/18 09:54:52;;;;;;;24.05;13.98;;;14.00;99.90;;;;;;5076268;28;20035;-84
2023/12/18 09:57:19;;;;;;;20.67;13.48;;;14.00;99.90;;;;;;5078764;28;20126;-85
2023/12/18 09:59:47;;;;;;;16.77;12.93;;;14.00;99.90;;;;;;5074615;28;20029;-84
2023/12/18 10:02:14;;;;;;;22.27;13.40;;;13.90;99.90;;;;;;5077146;28;20459;-84
2023/12/18 10:04:42;;;;;;;19.83;12.88;;;13.90;99.90;;;;;;5076515;28;20025;-84
2023/12/18 10:07:08;;;;;;;14.88;12.43;;;13.80;99.90;;;;;;5074424;28;20143;-88
2023/12/18 10:09:36;;;;;;;21.75;12.52;;;13.70;99.90;;;;;;5067280;28;20029;-87
2023/12/18 10:12:06;;;;;;;26.15;13.18;;;13.70;99.90;;;;;;5082003;28;20131;-81
2023/12/18 10:14:34;;;;;;;18.52;12.40;;;13.80;99.90;;;;;;5077043;28;20477;-83
2023/12/18 10:17:00;;;;;;;22.88;12.95;;;13.90;99.90;;;;;;5075888;28;20052;-84
2023/12/18 10:19:28;;;;;;;19.15;12.98;;;14.00;99.90;;;;;;5077189;28;20366;-83
2023/12/18 10:21:54;;;;;;;17.00;12.68;;;13.90;99.90;;;;;;5058608;28;20504;-84
2023/12/18 10:24:20;;;;;;;12.65;11.27;;;13.90;99.90;;;;;;5077123;28;20046;-84
2023/12/18 10:26:50;;;;;;;13.90;12.13;;;13.90;99.90;;;;;;5060689;28;20043;-84
2023/12/18 10:29:16;;;;;;;13.88;12.30;;;14.00;99.90;;;;;;5076379;28;20032;-84
2023/12/18 10:31:44;;;;;;;17.00;12.73;;;14.10;99.90;;;;;;5095111;28;20663;-85
2023/12/18 10:34:11;;;;;;;14.25;12.55;;;14.10;99.90;;;;;;5065258;28;20036;-85
2023/12/18 10:36:41;;;;;;;20.40;13.40;;;14.30;99.90;;;;;;5093627;28;20488;-84
2023/12/18 10:39:12;;;;;;;18.13;13.20;;;14.30;99.90;;;;;;5078222;28;20024;-85
2023/12/18 10:41:44;;;;;;;18.35;11.98;;;14.20;99.90;;;;;;5094801;28;20024;-84
2023/12/18 10:44:14;;;;;;;14.20;12.32;;;14.20;99.90;;;;;;5093016;28;20388;-84
2023/12/18 10:46:41;;;;;;;21.88;12.88;;;14.20;99.90;;;;;;5077663;28;20439;-86
2023/12/18 10:49:08;;;;;;;13.68;12.50;;;14.20;99.90;;;;;;5077661;28;20032;-84
2023/12/18 10:51:36;;;;;;;14.55;12.50;;;14.30;99.90;;;;;;5077566;28;20039;-85
2023/12/18 10:54:03;;;;;;;15.52;13.00;;;14.40;99.90;;;;;;5094179;28;20457;-84
2023/12/18 10:56:31;;;;;;;17.13;12.65;;;14.50;99.90;;;;;;5077357;28;20024;-84
2023/12/18 10:58:59;;;;;;;15.55;12.98;;;14.40;99.90;;;;;;5093684;28;20028;-84
2023/12/18 11:01:27;;;;;;;14.65;13.23;;;14.40;99.90;;;;;;5094115;28;20091;-84
2023/12/18 11:03:54;;;;;;;21.58;13.70;;;14.40;99.90;;;;;;5073825;28;20106;-85
2023/12/18 11:06:21;;;;;;;21.10;14.23;;;14.50;99.90;;;;;;5070050;28;20033;-84
2023/12/18 11:08:49;;;;;;;19.42;13.57;;;14.50;99.90;;;;;;5074377;28;20032;-84
2023/12/18 11:11:17;;;;;;;15.80;14.00;;;14.60;99.90;;;;;;5076975;28;20036;-84
2023/12/18 11:14:07;;;;;;;20.60;13.70;;;14.70;99.90;;;;;;5077450;28;20028;-85
2023/12/18 11:16:38;;;;;;;17.20;13.40;;;14.70;99.90;;;;;;5077101;28;20032;-85
2023/12/18 11:19:20;;;;;;;16.20;13.10;;;14.50;99.90;;;;;;5077313;28;20031;-84
2023/12/18 11:21:50;;;;;;;17.77;13.20;;;14.50;99.90;;;;;;5093857;28;20059;-84
2023/12/18 11:24:17;;;;;;;14.60;13.30;;;14.60;99.90;;;;;;5077634;28;20017;-84
2023/12/18 11:26:45;;;;;;;19.10;14.35;;;14.70;99.90;;;;;;5076774;28;20110;-84
2023/12/18 11:29:42;;;;;;;15.05;13.60;;;14.80;99.90;;;;;;5073315;28;20012;-84
2023/12/18 11:32:51;;;;;;;15.75;13.55;;;14.70;99.90;;;;;;5074360;28;20035;-83
2023/12/18 11:35:28;;;;;;;17.52;14.13;;;14.70;99.90;;;;;;5079171;28;20050;-83
2023/12/18 11:38:08;;;;;;;18.60;13.80;;;14.60;99.90;;;;;;5074968;28;20027;-83
2023/12/18 11:40:36;;;;;;;15.32;13.50;;;14.60;99.90;;;;;;5078677;28;20472;-83
2023/12/18 11:43:03;;;;;;;23.73;13.75;;;14.60;99.90;;;;;;5079489;28;20015;-83
2023/12/18 11:45:30;;;;;;;18.85;14.02;;;14.60;99.90;;;;;;5096228;28;20491;-83
2023/12/18 11:48:04;;;;;;;20.90;13.57;;;14.50;99.90;;;;;;5079682;28;20016;-83
2023/12/18 11:50:38;;;;;;;22.40;13.43;;;14.50;99.90;;;;;;5076927;28;20032;-83
2023/12/18 11:53:17;;;;;;;20.08;14.05;;;14.60;99.90;;;;;;5078565;28;20042;-84
2023/12/18 11:55:48;;;;;;;16.08;14.65;;;14.70;99.90;;;;;;5075597;28;20054;-84
2023/12/18 11:58:15;;;;;;;18.67;13.88;;;14.90;99.90;;;;;;5071035;28;20027;-84
2023/12/18 12:00:42;;;;;;;15.48;13.93;;;15.00;99.90;;;;;;5078012;28;20042;-84
2023/12/18 12:03:10;;;;;;;17.30;13.77;;;14.90;99.90;;;;;;5078948;28;20384;-85
2023/12/18 12:05:38;;;;;;;15.65;14.27;;;14.80;99.90;;;;;;5078108;28;20055;-85
2023/12/18 12:08:05;;;;;;;17.67;14.70;;;14.70;99.90;;;;;;5076381;28;20077;-85
2023/12/18 12:10:43;;;;;;;16.80;14.65;;;14.70;99.90;;;;;;5063126;28;20016;-85
2023/12/18 12:13:29;;;;;;;16.85;14.55;;;14.70;99.90;;;;;;5087691;28;20023;-83
2023/12/18 12:15:57;;;;;;;17.77;13.77;;;14.50;99.90;;;;;;5079113;28;20030;-84
2023/12/18 12:18:25;;;;;;;17.52;14.27;;;14.50;99.90;;;;;;5095990;28;20123;-84
2023/12/18 12:20:52;;;;;;;22.48;13.50;;;14.60;99.90;;;;;;5076662;28;20020;-84
2023/12/18 12:23:19;;;;;;;19.45;13.27;;;14.70;99.90;;;;;;5095797;28;20027;-83
2023/12/18 12:25:47;;;;;;;22.75;13.57;;;14.70;99.90;;;;;;5078094;28;20023;-81
2023/12/18 12:28:16;;;;;;;19.13;13.50;;;14.80;99.90;;;;;;5076542;28;20078;-81
2023/12/18 12:30:44;;;;;;;19.08;13.05;;;14.80;99.90;;;;;;5077105;28;20104;-82
2023/12/18 12:33:11;;;;;;;21.38;12.98;;;14.70;99.90;;;;;;5078641;28;20444;-86
2023/12/18 12:35:37;;;;;;;16.90;13.05;;;14.70;99.90;;;;;;5095378;28;20035;-83
2023/12/18 12:38:05;;;;;;;16.63;12.50;;;14.60;99.90;;;;;;5095629;28;20388;-84